Ottumwa Regional Airport
KOTM : rendu visible

Aérodrome :











RETROUVEZ-NOUS SUR...

 
LOGIN :

S'inscrire | Disclaimer

   EN    FR    IT 

 









Légende :    VFR   VFR Marginal   IFR   IFR Intensif   IFR Très Intensif
Visi : 
Plafond : 
>= 8 km
>= 3000ft
5 à 8 km
1000 à 3000 ft
1500m à 5 km
500 à 1000 ft
800 à 1500m
200 à 500 ft
< 800m
< 200 ft
Symboles :   Orages  Brouillard  Fortes neiges  Fortes précipitations  Vent > 20 kt






- Altitude de l'aérodrome : 845 ft
- Code IATA : OTM


KOTM - Ottumwa Regional

DERNIER METAR :
  • 211553Z AUTO 29015G22KT 10SM OVC011 07/06 A2986 RMK AO2 PK WND 28030/1508 RAE08 SLP112 P0000 T00720056

METARs EXPIRÉS :
  • 211530Z AUTO 30014G27KT 10SM OVC011 07/06 A2984 RMK AO2 PK WND 28030/1508 RAE08 P0000 T00720056
  • 211453Z AUTO 28016G26KT 4SM -RA BR OVC007 08/07 A2980 RMK AO2 PK WND 26029/1430 RAB45 SLP093 P0000 60000 T00830072 53048
  • 211353Z AUTO 26019G27KT 7SM OVC008 09/08 A2975 RMK AO2 PK WND 28032/1306 RAE00 CIG 007V012 SLP075 P0000 T00890078
  • 211343Z AUTO 26018G27KT 6SM BR OVC008 09/08 A2974 RMK AO2 PK WND 28032/1306 RAE00 CIG 007V012 P0000 T00940078
  • 211317Z AUTO 27017G31KT 10SM BKN010 OVC015 10/08 A2971 RMK AO2 PK WND 28032/1306 RAE00 CIG 007V012 P0000 T01000083

TAF KOTM
Valide du 21 à 15h jusqu'au 22 à 12h UTC


211453Z 2115/2212 27018G31KT P6SM OVC008
FM211600 31018G32KT P6SM OVC009
FM220000 33015KT P6SM BKN025
FM220400 33012KT P6SM SKC



MET'MAP, la Météo Aéronautique d'un coup d'oeil ! - Copyright ORBIFLY Décembre 2007 - Disclaimer

ORBIFLY MET'MAP TEAM :

Programmation & Développement : Alexandra Zaïnal
Conception & Développement : Baudouin d'Aumeries
Co-Programmation & Développement : Marc-Olivier Méhu
Soutien technique & logistique : Manuel Goepfert

Contact : metmap@orbifly.com




SOURCES & CREDITS :

   NOAA       Earth
Advisory